Time;durP1;ratioP1;P1;durP2;ratioP2;P2;SDS_P1;SDS_P2;PMS_P1;PMS_P2;Temp;Humidity;BMP_temperature;BMP_pressure;BME280_temperature;BME280_humidity;BME280_pressure;Samples;Min_cycle;Max_cycle;Signal;HPM_P1;HPM_P2
2023/06/23 00:02:16;;;;;;;5.88;2.63;;;18.90;99.90;;;;;;5052759;28;20175;-91
2023/06/23 00:04:42;;;;;;;3.85;2.17;;;18.90;99.90;;;;;;5037449;28;20194;-90
2023/06/23 00:07:19;;;;;;;5.88;2.55;;;18.90;99.90;;;;;;5048358;28;20184;-89
2023/06/23 00:09:45;;;;;;;5.15;2.50;;;18.80;99.90;;;;;;5038072;28;20272;-89
2023/06/23 00:12:11;;;;;;;6.35;2.58;;;18.80;99.90;;;;;;5020855;28;20183;-88
2023/06/23 00:14:36;;;;;;;6.25;3.20;;;18.80;99.90;;;;;;5018500;28;20183;-89
2023/06/23 00:17:03;;;;;;;7.00;2.63;;;18.60;99.90;;;;;;5017330;28;20205;-90
2023/06/23 00:19:31;;;;;;;4.95;2.60;;;18.70;99.90;;;;;;5017626;28;20273;-90
2023/06/23 00:21:58;;;;;;;9.43;2.60;;;18.70;99.90;;;;;;5034817;28;20209;-90
2023/06/23 00:24:23;;;;;;;7.90;2.70;;;18.60;99.90;;;;;;5027060;28;20211;-87
2023/06/23 00:26:50;;;;;;;7.88;2.95;;;18.70;99.90;;;;;;5018250;28;20179;-89
2023/06/23 00:29:16;;;;;;;3.55;2.47;;;18.60;99.90;;;;;;5049789;28;20305;-90
2023/06/23 00:31:43;;;;;;;5.28;2.35;;;18.70;99.90;;;;;;5019700;28;20321;-89
2023/06/23 00:34:08;;;;;;;7.57;2.20;;;18.70;99.90;;;;;;5031429;28;20228;-89
2023/06/23 00:36:34;;;;;;;3.72;2.50;;;18.70;99.90;;;;;;5021390;28;20191;-88
2023/06/23 00:39:02;;;;;;;7.45;3.00;;;18.60;99.90;;;;;;5036288;28;20179;-89
2023/06/23 00:41:28;;;;;;;4.95;3.25;;;18.60;99.90;;;;;;5044827;28;20182;-89
2023/06/23 00:43:58;;;;;;;7.95;3.40;;;18.60;99.90;;;;;;5043434;28;20676;-88
2023/06/23 00:46:25;;;;;;;6.82;3.78;;;18.60;99.90;;;;;;5017636;28;20622;-89
2023/06/23 00:48:53;;;;;;;6.20;3.13;;;18.60;99.90;;;;;;5016664;28;20294;-90
2023/06/23 00:51:22;;;;;;;5.10;3.38;;;18.50;99.90;;;;;;5016815;28;20622;-90
2023/06/23 00:53:48;;;;;;;4.35;3.42;;;18.50;99.90;;;;;;5016756;28;20863;-89
2023/06/23 00:56:22;;;;;;;7.38;3.55;;;18.50;99.90;;;;;;5016646;28;20293;-89
2023/06/23 00:58:54;;;;;;;4.82;3.63;;;18.50;99.90;;;;;;5016876;28;20176;-89
2023/06/23 01:01:20;;;;;;;5.30;3.92;;;18.50;99.90;;;;;;5027103;28;20233;-89
2023/06/23 01:03:45;;;;;;;6.13;3.58;;;18.50;99.90;;;;;;5036529;28;20230;-90
2023/06/23 01:06:37;;;;;;;7.95;4.07;;;18.50;99.90;;;;;;5036210;28;20175;-91
2023/06/23 01:09:22;;;;;;;8.05;3.95;;;18.50;99.90;;;;;;5037634;28;20199;-90
2023/06/23 01:12:02;;;;;;;8.32;4.10;;;18.60;99.90;;;;;;5026847;28;20186;-89
2023/06/23 01:14:34;;;;;;;10.75;4.15;;;18.60;99.90;;;;;;5018131;28;20183;-92
2023/06/23 01:17:12;;;;;;;4.55;4.10;;;18.70;99.90;;;;;;5017007;28;20171;-88
2023/06/23 01:20:21;;;;;;;6.28;4.30;;;18.70;99.90;;;;;;5029783;28;20198;-90
2023/06/23 01:23:06;;;;;;;8.75;4.43;;;18.70;99.90;;;;;;5016197;28;20175;-89
2023/06/23 01:25:49;;;;;;;6.60;4.68;;;18.70;99.90;;;;;;5033546;28;20190;-90
2023/06/23 01:28:18;;;;;;;7.20;4.80;;;18.70;99.90;;;;;;5025177;28;20202;-89
2023/06/23 01:30:47;;;;;;;12.07;5.13;;;18.60;99.90;;;;;;5035777;28;20541;-89
2023/06/23 01:33:18;;;;;;;6.97;5.85;;;18.60;99.90;;;;;;5035356;28;20256;-88
2023/06/23 01:35:51;;;;;;;7.45;5.45;;;18.50;99.90;;;;;;5020394;28;20272;-89
2023/06/23 01:38:27;;;;;;;7.03;6.28;;;18.50;99.90;;;;;;5031922;28;20187;-91
2023/06/23 01:40:55;;;;;;;6.93;6.30;;;18.40;99.90;;;;;;5030553;28;20207;-89
2023/06/23 01:43:29;;;;;;;7.88;6.32;;;18.50;99.90;;;;;;5023874;28;20203;-90
2023/06/23 01:46:15;;;;;;;6.88;6.25;;;18.50;99.90;;;;;;5018073;28;20262;-90
2023/06/23 01:48:46;;;;;;;8.88;7.07;;;18.50;99.90;;;;;;5033571;28;20222;-91
2023/06/23 01:51:12;;;;;;;11.18;7.88;;;18.60;99.90;;;;;;5038629;28;20179;-90
2023/06/23 01:53:39;;;;;;;9.35;8.38;;;18.60;99.90;;;;;;5016671;28;20490;-89
2023/06/23 01:58:43;;;;;;;9.88;8.85;;;18.60;99.90;;;;;;5107513;23;20691;-92
2023/06/23 02:01:12;;;;;;;10.02;9.05;;;18.60;99.90;;;;;;5034744;28;20632;-93
2023/06/23 02:03:39;;;;;;;10.57;9.45;;;18.70;99.90;;;;;;5046853;28;20198;-95
2023/06/23 02:06:07;;;;;;;12.30;10.00;;;18.70;99.90;;;;;;5033588;28;20175;-94
2023/06/23 02:08:36;;;;;;;9.38;8.48;;;18.70;99.90;;;;;;5015579;28;20269;-94
2023/06/23 02:11:03;;;;;;;10.63;9.27;;;18.70;99.90;;;;;;5024604;28;20179;-93
2023/06/23 02:13:30;;;;;;;12.88;9.90;;;18.70;99.90;;;;;;5034807;28;20193;-93
2023/06/23 02:15:57;;;;;;;17.55;9.82;;;18.70;99.90;;;;;;5035348;28;20286;-93
2023/06/23 02:18:26;;;;;;;10.80;9.80;;;18.80;99.90;;;;;;5032971;28;20183;-93
2023/06/23 02:20:53;;;;;;;13.30;9.98;;;18.70;99.90;;;;;;5035221;28;20258;-90
2023/06/23 02:23:20;;;;;;;14.07;10.65;;;18.70;99.90;;;;;;5032192;28;20187;-93
2023/06/23 02:25:46;;;;;;;11.68;10.57;;;18.80;99.90;;;;;;5036351;28;20174;-94
2023/06/23 02:28:13;;;;;;;14.60;10.45;;;18.70;99.90;;;;;;5034253;28;20206;-94
2023/06/23 02:30:40;;;;;;;13.57;11.27;;;18.70;99.90;;;;;;5036350;28;20182;-95
2023/06/23 02:33:06;;;;;;;12.57;11.38;;;18.70;99.90;;;;;;5035118;28;20240;-95
2023/06/23 02:35:33;;;;;;;13.35;10.88;;;18.70;99.90;;;;;;5034779;28;20190;-91
2023/06/23 02:38:03;;;;;;;12.35;11.02;;;18.60;99.90;;;;;;5033162;28;20186;-91
2023/06/23 02:40:33;;;;;;;13.40;11.35;;;18.60;99.90;;;;;;5034159;28;20290;-90
2023/06/23 02:43:13;;;;;;;14.10;12.07;;;18.60;99.90;;;;;;5026864;28;20618;-90
2023/06/23 02:45:43;;;;;;;13.55;11.77;;;18.70;99.90;;;;;;5021647;28;20187;-89
2023/06/23 02:48:15;;;;;;;12.63;11.05;;;18.70;99.90;;;;;;5032027;28;20645;-89
2023/06/23 02:50:49;;;;;;;12.23;11.02;;;18.70;99.90;;;;;;5050711;28;20197;-91
2023/06/23 02:53:23;;;;;;;12.45;11.18;;;18.70;99.90;;;;;;5034458;28;20177;-90
2023/06/23 02:55:55;;;;;;;17.02;12.35;;;18.70;99.90;;;;;;5034772;28;20265;-93
2023/06/23 02:58:23;;;;;;;14.00;11.93;;;18.60;99.90;;;;;;5034027;28;20564;-89
2023/06/23 03:00:52;;;;;;;17.17;12.73;;;18.60;99.90;;;;;;5018265;28;20183;-94
2023/06/23 03:03:18;;;;;;;13.13;11.75;;;18.50;99.90;;;;;;5032937;28;20314;-91
2023/06/23 03:05:43;;;;;;;13.90;12.57;;;18.50;99.90;;;;;;5035491;28;20202;-92
2023/06/23 03:08:10;;;;;;;13.98;12.52;;;18.50;99.90;;;;;;5034374;28;20214;-89
2023/06/23 03:10:40;;;;;;;18.33;13.02;;;18.40;99.90;;;;;;5034500;28;20179;-92
2023/06/23 03:13:06;;;;;;;14.98;13.07;;;18.40;99.90;;;;;;5034252;28;20269;-91
2023/06/23 03:15:32;;;;;;;14.05;12.00;;;18.40;99.90;;;;;;5034738;28;20175;-95
2023/06/23 03:18:03;;;;;;;14.13;12.73;;;18.50;99.90;;;;;;5034225;28;20607;-92
2023/06/23 03:21:03;;;;;;;14.63;13.13;;;18.40;99.90;;;;;;5035148;28;20186;-94
2023/06/23 03:23:32;;;;;;;16.10;13.02;;;18.50;99.90;;;;;;5023071;28;20641;-93
2023/06/23 03:26:00;;;;;;;14.05;12.45;;;18.50;99.90;;;;;;5030593;28;20492;-92
2023/06/23 03:28:29;;;;;;;16.48;13.63;;;18.50;99.90;;;;;;5033841;28;20305;-91
2023/06/23 03:31:07;;;;;;;15.48;13.35;;;18.40;99.90;;;;;;5034863;28;20197;-93
2023/06/23 03:33:42;;;;;;;15.68;13.07;;;18.40;99.90;;;;;;5018350;28;20186;-91
2023/06/23 03:36:26;;;;;;;16.55;12.98;;;18.40;99.90;;;;;;5034926;28;20182;-93
2023/06/23 03:39:26;;;;;;;16.60;12.38;;;18.40;99.90;;;;;;5022966;28;20265;-91
2023/06/23 03:41:53;;;;;;;16.05;12.02;;;18.40;99.90;;;;;;4985936;28;20205;-92
2023/06/23 03:44:33;;;;;;;15.05;12.27;;;18.30;99.90;;;;;;5034354;28;20202;-91
2023/06/23 03:47:14;;;;;;;17.33;12.65;;;18.30;99.90;;;;;;5035435;28;20333;-90
2023/06/23 03:49:51;;;;;;;13.77;12.40;;;18.30;99.90;;;;;;5035284;28;20278;-93
2023/06/23 03:52:18;;;;;;;13.57;12.15;;;18.30;99.90;;;;;;5034220;28;20624;-93
2023/06/23 03:54:45;;;;;;;13.48;12.05;;;18.20;99.90;;;;;;5036061;28;20174;-93
2023/06/23 03:57:16;;;;;;;14.85;12.38;;;18.20;99.90;;;;;;5034442;28;20341;-92
2023/06/23 03:59:46;;;;;;;13.73;11.95;;;18.30;99.90;;;;;;5033880;28;20700;-92
2023/06/23 04:02:17;;;;;;;15.38;12.52;;;18.20;99.90;;;;;;5033971;28;20598;-92
2023/06/23 04:04:44;;;;;;;17.33;12.48;;;18.20;99.90;;;;;;5034837;28;20178;-92
2023/06/23 04:07:11;;;;;;;13.80;12.40;;;18.20;99.90;;;;;;5033983;28;20179;-92
2023/06/23 04:09:47;;;;;;;21.13;12.25;;;18.10;99.90;;;;;;5033959;28;20183;-92
2023/06/23 04:12:15;;;;;;;14.25;12.70;;;18.10;99.90;;;;;;5033069;28;20224;-92
2023/06/23 04:14:44;;;;;;;14.95;12.20;;;18.10;99.90;;;;;;5033930;28;20179;-94
2023/06/23 04:17:12;;;;;;;13.85;12.23;;;18.10;99.90;;;;;;5033950;28;20233;-93
2023/06/23 04:19:40;;;;;;;15.73;12.95;;;18.10;99.90;;;;;;5033411;28;20261;-92
2023/06/23 04:22:08;;;;;;;15.13;12.95;;;18.10;99.90;;;;;;5033113;28;20262;-94
2023/06/23 04:24:37;;;;;;;17.42;10.93;;;18.00;99.90;;;;;;5033822;28;20644;-92
2023/06/23 04:27:05;;;;;;;13.68;10.70;;;17.90;99.90;;;;;;5033028;28;20569;-92
2023/06/23 04:29:34;;;;;;;17.42;10.88;;;18.00;99.90;;;;;;5033010;28;20182;-90
2023/06/23 04:32:04;;;;;;;12.30;10.18;;;18.00;99.90;;;;;;5033181;28;20241;-92
2023/06/23 04:34:30;;;;;;;11.82;9.68;;;17.90;99.90;;;;;;5034205;28;20217;-92
2023/06/23 04:37:08;;;;;;;14.82;9.52;;;17.90;99.90;;;;;;5033464;28;20217;-91
2023/06/23 04:39:55;;;;;;;10.38;9.15;;;17.90;99.90;;;;;;5031805;28;20179;-93
2023/06/23 04:42:33;;;;;;;11.40;9.15;;;17.90;99.90;;;;;;5021464;28;20626;-91
2023/06/23 04:45:01;;;;;;;10.27;9.27;;;17.80;99.90;;;;;;5032642;28;20592;-94
2023/06/23 04:47:33;;;;;;;11.43;8.77;;;17.80;99.90;;;;;;5024879;28;20219;-94
2023/06/23 04:50:04;;;;;;;14.77;9.68;;;17.80;99.90;;;;;;5016746;28;20179;-95
2023/06/23 04:52:31;;;;;;;11.68;9.00;;;17.80;99.90;;;;;;5017218;28;20270;-93
2023/06/23 04:55:01;;;;;;;12.63;9.52;;;17.70;99.90;;;;;;5019330;28;20179;-92
2023/06/23 04:57:31;;;;;;;9.75;8.73;;;17.70;99.90;;;;;;5022797;28;20236;-92
2023/06/23 05:00:00;;;;;;;18.27;9.23;;;17.60;99.90;;;;;;5036730;28;20182;-93
2023/06/23 05:02:27;;;;;;;15.00;8.15;;;17.60;99.90;;;;;;5035124;28;20174;-92
2023/06/23 05:04:55;;;;;;;12.32;8.27;;;17.60;99.90;;;;;;5053535;28;20182;-92
2023/06/23 05:07:23;;;;;;;9.82;8.45;;;17.60;99.90;;;;;;5042590;28;20198;-93
2023/06/23 05:09:53;;;;;;;10.88;8.23;;;17.60;99.90;;;;;;5020330;28;20616;-92
2023/06/23 05:12:25;;;;;;;11.23;7.65;;;17.50;99.90;;;;;;5016654;28;20186;-92
2023/06/23 05:14:53;;;;;;;11.65;8.00;;;17.50;99.90;;;;;;5017043;28;20207;-91
2023/06/23 05:17:22;;;;;;;12.77;8.43;;;17.40;99.90;;;;;;5020118;28;20171;-93
2023/06/23 05:19:49;;;;;;;14.00;9.15;;;17.50;99.90;;;;;;5035665;28;20179;-93
2023/06/23 05:22:23;;;;;;;13.52;8.25;;;17.40;99.90;;;;;;5037046;28;20671;-93
2023/06/23 05:24:54;;;;;;;13.35;8.35;;;17.40;99.90;;;;;;5016416;28;20181;-92
2023/06/23 05:27:24;;;;;;;18.02;9.45;;;17.30;99.90;;;;;;5028321;28;20566;-91
2023/06/23 05:29:54;;;;;;;12.85;8.77;;;17.30;99.90;;;;;;5039340;28;20186;-95
2023/06/23 05:32:23;;;;;;;13.38;9.60;;;17.20;99.90;;;;;;5039656;28;20175;-94
2023/06/23 05:34:50;;;;;;;11.85;9.32;;;17.20;99.90;;;;;;5036242;28;20179;-95
2023/06/23 05:37:23;;;;;;;10.90;8.35;;;17.20;99.90;;;;;;5036528;28;20183;-92
2023/06/23 05:39:49;;;;;;;11.70;8.48;;;17.20;99.90;;;;;;5048905;28;20214;-94
2023/06/23 05:42:23;;;;;;;13.30;8.27;;;17.20;99.90;;;;;;5024807;28;20186;-95
2023/06/23 05:44:50;;;;;;;11.20;8.23;;;17.10;99.90;;;;;;5044431;28;20199;-96
2023/06/23 05:47:22;;;;;;;13.32;8.60;;;17.10;99.90;;;;;;5040738;28;20210;-95
2023/06/23 05:49:50;;;;;;;11.93;8.70;;;17.10;99.90;;;;;;5029031;28;20178;-93
2023/06/23 05:52:22;;;;;;;16.23;9.80;;;17.10;99.90;;;;;;5037013;28;20182;-94
2023/06/23 05:54:50;;;;;;;13.20;9.45;;;17.10;99.90;;;;;;5022733;28;20194;-94
2023/06/23 05:57:28;;;;;;;10.85;8.93;;;17.10;99.90;;;;;;5037325;28;20234;-96
2023/06/23 06:00:10;;;;;;;10.68;8.88;;;17.10;99.90;;;;;;5016905;28;20183;-92
2023/06/23 06:02:44;;;;;;;13.85;8.70;;;17.10;99.90;;;;;;5034395;28;20281;-95
2023/06/23 06:05:20;;;;;;;12.02;8.20;;;17.10;99.90;;;;;;5036552;28;20202;-95
2023/06/23 06:10:42;;;;;;;11.27;7.95;;;17.10;99.90;;;;;;5040247;28;20193;-95
2023/06/23 06:13:23;;;;;;;9.90;8.13;;;17.10;99.90;;;;;;5042153;28;20261;-96
2023/06/23 06:15:51;;;;;;;9.93;7.03;;;17.10;99.90;;;;;;5039295;28;20181;-93
2023/06/23 06:18:19;;;;;;;8.45;7.13;;;17.10;99.90;;;;;;5040150;28;20672;-93
2023/06/23 06:20:47;;;;;;;10.40;6.68;;;17.00;99.90;;;;;;5027593;28;20186;-95
2023/06/23 06:23:16;;;;;;;7.00;6.05;;;17.00;99.90;;;;;;5024964;28;20179;-96
2023/06/23 06:25:45;;;;;;;6.78;5.82;;;17.00;99.90;;;;;;5040838;28;20238;-94
2023/06/23 06:28:24;;;;;;;6.80;5.22;;;16.90;99.90;;;;;;5039450;28;20209;-94
2023/06/23 06:30:55;;;;;;;7.65;4.95;;;16.90;99.90;;;;;;5047576;28;20183;-93
2023/06/23 06:33:27;;;;;;;5.22;3.92;;;16.80;99.90;;;;;;5037669;28;20240;-96
2023/06/23 06:36:04;;;;;;;10.27;4.15;;;16.70;99.90;;;;;;5040109;28;20194;-92
2023/06/23 06:38:37;;;;;;;5.53;3.47;;;16.60;99.90;;;;;;5038893;28;20232;-90
2023/06/23 06:41:07;;;;;;;7.05;3.22;;;16.50;99.90;;;;;;5040810;28;20182;-92
2023/06/23 06:43:44;;;;;;;5.88;3.42;;;16.40;99.90;;;;;;5038837;28;20246;-90
2023/06/23 06:46:11;;;;;;;6.97;2.90;;;16.30;99.90;;;;;;5038810;28;20330;-96
2023/06/23 06:48:42;;;;;;;8.52;3.33;;;16.30;99.90;;;;;;5025599;28;20203;-92
2023/06/23 06:51:14;;;;;;;7.25;3.28;;;16.20;99.90;;;;;;5044329;28;20170;-94
2023/06/23 06:53:46;;;;;;;4.57;3.47;;;16.00;99.90;;;;;;5041583;28;20175;-93
2023/06/23 06:56:16;;;;;;;4.43;2.85;;;16.00;99.90;;;;;;5040571;28;20173;-94
2023/06/23 06:58:59;;;;;;;5.20;3.50;;;15.90;99.90;;;;;;5042335;28;20230;-93
2023/06/23 07:01:29;;;;;;;4.20;3.13;;;15.90;99.90;;;;;;5039239;28;20244;-94
2023/06/23 07:03:56;;;;;;;4.93;3.10;;;15.90;99.90;;;;;;5013737;28;20207;-92
2023/06/23 07:06:22;;;;;;;5.20;3.28;;;15.90;99.90;;;;;;5037571;28;20209;-92
2023/06/23 07:08:48;;;;;;;4.70;2.97;;;15.90;99.90;;;;;;5037199;28;20217;-90
2023/06/23 07:11:14;;;;;;;4.03;2.70;;;15.80;99.90;;;;;;5037159;28;20175;-94
2023/06/23 07:13:47;;;;;;;5.63;2.72;;;15.80;99.90;;;;;;5036201;28;20193;-94
2023/06/23 07:16:13;;;;;;;3.80;2.72;;;15.70;99.90;;;;;;5038569;28;20213;-95
2023/06/23 07:18:39;;;;;;;3.83;2.85;;;15.70;99.90;;;;;;5036486;28;20193;-89
2023/06/23 07:21:10;;;;;;;3.78;2.75;;;15.70;99.90;;;;;;5017860;28;20178;-91
2023/06/23 07:23:42;;;;;;;5.50;2.80;;;15.60;99.90;;;;;;5026492;28;20209;-91
2023/06/23 07:26:09;;;;;;;5.93;2.38;;;15.70;99.90;;;;;;5025541;28;20178;-90
2023/06/23 07:28:37;;;;;;;2.72;2.47;;;15.60;99.90;;;;;;5049118;28;20199;-94
2023/06/23 07:31:05;;;;;;;4.20;2.30;;;15.60;99.90;;;;;;5019560;28;20207;-94
2023/06/23 07:33:34;;;;;;;5.07;2.58;;;15.60;99.90;;;;;;5025479;28;20282;-93
2023/06/23 07:36:00;;;;;;;5.45;2.58;;;15.60;99.90;;;;;;5050207;28;20174;-94
2023/06/23 07:38:29;;;;;;;3.25;2.50;;;15.60;99.90;;;;;;5031793;28;20516;-93
2023/06/23 07:41:04;;;;;;;4.13;2.30;;;15.60;99.90;;;;;;5031433;28;20278;-92
2023/06/23 07:43:31;;;;;;;3.67;2.40;;;15.60;99.90;;;;;;5021599;28;20533;-94
2023/06/23 07:45:58;;;;;;;3.30;2.42;;;15.60;99.90;;;;;;5044414;28;20194;-95
2023/06/23 07:48:24;;;;;;;2.63;2.40;;;15.60;99.90;;;;;;5036783;28;20210;-92
2023/06/23 07:50:50;;;;;;;4.18;2.67;;;15.60;99.90;;;;;;5127819;22;20241;-92
2023/06/23 07:53:16;;;;;;;4.05;2.67;;;15.50;99.90;;;;;;5034032;28;20193;-92
2023/06/23 07:55:42;;;;;;;4.28;2.75;;;15.50;99.90;;;;;;5033409;28;20559;-92
2023/06/23 07:58:10;;;;;;;4.88;3.03;;;15.50;99.90;;;;;;5031661;28;20187;-90
2023/06/23 08:00:39;;;;;;;5.35;3.03;;;15.50;99.90;;;;;;5030580;28;20186;-95
2023/06/23 08:03:11;;;;;;;5.10;3.80;;;15.50;99.90;;;;;;5034149;28;20704;-92
2023/06/23 08:05:41;;;;;;;5.40;4.20;;;15.50;99.90;;;;;;5028322;28;20182;-95
2023/06/23 08:08:07;;;;;;;4.97;4.28;;;15.50;99.90;;;;;;5018377;28;20222;-95
2023/06/23 08:10:33;;;;;;;5.22;4.72;;;15.60;99.90;;;;;;5025218;28;20215;-90
2023/06/23 08:13:01;;;;;;;6.57;5.03;;;15.70;99.90;;;;;;5027462;28;20186;-92
2023/06/23 08:15:28;;;;;;;5.93;4.75;;;15.70;99.90;;;;;;5027946;28;20171;-93
2023/06/23 08:17:54;;;;;;;5.28;4.53;;;15.70;99.90;;;;;;5032992;28;20206;-94
2023/06/23 08:20:20;;;;;;;8.13;4.55;;;15.70;99.90;;;;;;5032836;28;20612;-95
2023/06/23 08:22:46;;;;;;;5.30;4.55;;;15.70;99.90;;;;;;5036507;28;20273;-94
2023/06/23 08:25:16;;;;;;;8.82;4.35;;;15.60;99.90;;;;;;5036898;28;20220;-94
2023/06/23 08:27:42;;;;;;;6.45;5.50;;;15.70;99.90;;;;;;5038752;28;20281;-93
2023/06/23 08:30:08;;;;;;;6.00;4.65;;;15.70;99.90;;;;;;5038527;28;20198;-95
2023/06/23 08:32:34;;;;;;;7.35;5.20;;;15.70;99.90;;;;;;5037618;28;20608;-94
2023/06/23 08:35:00;;;;;;;5.45;4.47;;;15.60;99.90;;;;;;5040456;28;20265;-96
2023/06/23 08:37:25;;;;;;;7.00;4.50;;;15.70;99.90;;;;;;5044917;28;20170;-92
2023/06/23 08:40:21;;;;;;;6.82;4.53;;;15.60;99.90;;;;;;5042668;28;20178;-96
2023/06/23 08:42:49;;;;;;;5.50;4.30;;;15.60;99.90;;;;;;5034707;28;20194;-96
2023/06/23 08:45:17;;;;;;;5.65;4.20;;;15.60;99.90;;;;;;5040918;28;20175;-93
2023/06/23 08:47:51;;;;;;;4.78;3.95;;;15.60;99.90;;;;;;5037041;28;20295;-94
2023/06/23 08:50:17;;;;;;;4.93;4.10;;;15.60;99.90;;;;;;5029366;28;20179;-91
2023/06/23 08:52:43;;;;;;;6.43;4.50;;;15.50;99.90;;;;;;5036338;28;20725;-92
2023/06/23 08:55:10;;;;;;;7.63;4.35;;;15.50;99.90;;;;;;5036113;28;20516;-91
2023/06/23 08:57:38;;;;;;;8.07;4.10;;;15.50;99.90;;;;;;5036760;28;20639;-93
2023/06/23 09:00:08;;;;;;;5.68;4.15;;;15.50;99.90;;;;;;5036543;28;20182;-90
2023/06/23 09:02:34;;;;;;;4.53;3.83;;;15.50;99.90;;;;;;5036542;28;20178;-90
2023/06/23 09:05:00;;;;;;;6.15;3.83;;;15.60;99.90;;;;;;5034763;28;20174;-95
2023/06/23 09:07:28;;;;;;;7.18;4.22;;;15.60;99.90;;;;;;5035273;28;20273;-90
2023/06/23 09:09:55;;;;;;;4.90;4.40;;;15.60;99.90;;;;;;5035868;28;20179;-94
2023/06/23 09:12:21;;;;;;;5.03;4.43;;;15.60;99.90;;;;;;5035013;28;20274;-90
2023/06/23 09:14:51;;;;;;;6.20;4.47;;;15.60;99.90;;;;;;5034933;28;20634;-94
2023/06/23 09:17:18;;;;;;;6.85;5.13;;;15.70;99.90;;;;;;5035685;28;20175;-91
2023/06/23 09:19:51;;;;;;;6.05;5.00;;;15.70;99.90;;;;;;5034362;28;20186;-92
2023/06/23 09:22:19;;;;;;;5.88;5.13;;;15.70;99.90;;;;;;5035719;28;20248;-92
2023/06/23 09:24:46;;;;;;;5.75;4.95;;;15.70;99.90;;;;;;5034753;28;20660;-88
2023/06/23 09:27:13;;;;;;;6.18;5.10;;;15.80;99.90;;;;;;5035250;28;20178;-92
2023/06/23 09:29:39;;;;;;;7.43;5.20;;;15.80;99.90;;;;;;5035823;28;20194;-87
2023/06/23 09:32:06;;;;;;;5.63;5.00;;;15.80;99.90;;;;;;5031851;28;20210;-91
2023/06/23 09:34:37;;;;;;;7.13;5.20;;;15.90;99.90;;;;;;5029735;28;20655;-89
2023/06/23 09:37:13;;;;;;;5.88;5.10;;;15.90;99.90;;;;;;5035956;28;20202;-91
2023/06/23 09:39:48;;;;;;;7.07;5.50;;;15.90;99.90;;;;;;5036046;28;20179;-89
2023/06/23 09:42:14;;;;;;;8.13;5.25;;;15.90;99.90;;;;;;5031054;28;20192;-92
2023/06/23 09:44:48;;;;;;;7.15;5.57;;;16.00;99.90;;;;;;5036842;28;20225;-89
2023/06/23 09:47:15;;;;;;;6.03;4.78;;;16.00;99.90;;;;;;5035734;28;20236;-90
2023/06/23 09:49:43;;;;;;;6.50;4.57;;;16.10;99.90;;;;;;5051807;28;20656;-90
2023/06/23 09:52:13;;;;;;;6.97;5.10;;;16.10;99.90;;;;;;5034366;28;20241;-89
2023/06/23 09:54:41;;;;;;;5.93;4.55;;;16.10;99.90;;;;;;5034103;28;20187;-90
2023/06/23 09:57:14;;;;;;;7.13;4.95;;;16.10;99.90;;;;;;5035556;28;20474;-90
2023/06/23 09:59:41;;;;;;;5.93;5.30;;;16.20;99.90;;;;;;5035223;28;20186;-92
2023/06/23 10:02:09;;;;;;;7.15;5.15;;;16.20;99.90;;;;;;5035294;28;20189;-87
2023/06/23 10:04:36;;;;;;;6.50;4.70;;;16.30;99.90;;;;;;5034562;28;20191;-90
2023/06/23 10:07:23;;;;;;;6.18;4.82;;;16.40;99.90;;;;;;5036640;28;20162;-92
2023/06/23 10:09:54;;;;;;;7.10;5.05;;;16.40;99.90;;;;;;5035146;28;20202;-89
2023/06/23 10:12:27;;;;;;;7.57;4.72;;;16.40;99.90;;;;;;5034874;28;20182;-89
2023/06/23 10:14:55;;;;;;;6.22;4.80;;;16.40;99.90;;;;;;5035388;28;20182;-89
2023/06/23 10:17:22;;;;;;;8.43;5.00;;;16.40;99.90;;;;;;5034705;28;20182;-93
2023/06/23 10:19:49;;;;;;;7.38;5.20;;;16.40;99.90;;;;;;5036246;28;20182;-89
2023/06/23 10:22:20;;;;;;;5.20;4.70;;;16.40;99.90;;;;;;5036357;28;20170;-92
2023/06/23 10:24:53;;;;;;;6.70;5.03;;;16.40;99.90;;;;;;5035541;28;20184;-91
2023/06/23 10:27:45;;;;;;;8.07;4.95;;;16.40;99.90;;;;;;5033848;28;20179;-93
2023/06/23 10:30:17;;;;;;;7.13;4.90;;;16.40;99.90;;;;;;5027684;28;20242;-89
2023/06/23 10:32:49;;;;;;;5.63;4.93;;;16.50;99.90;;;;;;5034151;28;20199;-89
2023/06/23 10:35:19;;;;;;;6.45;5.57;;;16.50;99.90;;;;;;5034086;28;20182;-91
2023/06/23 10:37:48;;;;;;;8.80;6.20;;;16.50;99.90;;;;;;5034118;28;20241;-93
2023/06/23 10:40:20;;;;;;;6.57;5.72;;;16.50;99.90;;;;;;5035008;28;20174;-91
2023/06/23 10:42:49;;;;;;;8.40;6.28;;;16.50;99.90;;;;;;5032126;28;20182;-88
2023/06/23 10:45:15;;;;;;;7.85;6.20;;;16.50;99.90;;;;;;5032734;28;20225;-89
2023/06/23 10:47:43;;;;;;;10.10;6.47;;;16.40;99.90;;;;;;5034504;28;20238;-90
2023/06/23 10:50:09;;;;;;;8.00;5.95;;;16.40;99.90;;;;;;5033752;28;20186;-91
2023/06/23 10:52:35;;;;;;;8.27;6.68;;;16.50;99.90;;;;;;5033731;28;20182;-90
2023/06/23 10:55:01;;;;;;;10.15;6.53;;;16.50;99.90;;;;;;5034411;28;20583;-91
2023/06/23 10:57:27;;;;;;;9.07;7.18;;;16.50;99.90;;;;;;5035134;28;20159;-90
2023/06/23 11:00:02;;;;;;;10.55;7.32;;;16.60;99.90;;;;;;5034512;28;20521;-89
2023/06/23 11:02:29;;;;;;;9.48;6.90;;;16.70;99.90;;;;;;5032268;28;20607;-92
2023/06/23 11:05:03;;;;;;;9.07;6.65;;;16.70;99.90;;;;;;5028629;28;20293;-91
2023/06/23 11:07:29;;;;;;;9.90;7.05;;;16.70;99.90;;;;;;5034097;28;20490;-90
2023/06/23 11:09:55;;;;;;;9.15;7.47;;;16.70;99.90;;;;;;5033631;28;20201;-90
2023/06/23 11:12:31;;;;;;;9.07;7.10;;;16.80;99.90;;;;;;5033066;28;20575;-89
2023/06/23 11:15:12;;;;;;;8.80;7.13;;;16.80;99.90;;;;;;5034175;28;20189;-91
2023/06/23 11:17:45;;;;;;;8.32;7.35;;;16.80;99.90;;;;;;5034079;28;20179;-93
2023/06/23 11:20:24;;;;;;;8.65;7.30;;;16.80;99.90;;;;;;5034052;28;20182;-94
2023/06/23 11:23:12;;;;;;;9.15;8.00;;;16.80;99.90;;;;;;5033376;28;20189;-92
2023/06/23 11:25:52;;;;;;;8.57;7.65;;;16.80;99.90;;;;;;5034518;28;20171;-90
2023/06/23 11:28:33;;;;;;;9.95;8.35;;;16.80;99.90;;;;;;5033782;28;20229;-90
2023/06/23 11:31:26;;;;;;;10.73;8.00;;;16.80;99.90;;;;;;5034363;28;20265;-91
2023/06/23 11:33:54;;;;;;;10.05;8.35;;;16.90;99.90;;;;;;5033035;28;20301;-89
2023/06/23 11:36:21;;;;;;;9.57;7.88;;;16.90;99.90;;;;;;5033849;28;20190;-89
2023/06/23 11:38:46;;;;;;;8.73;7.65;;;17.00;99.90;;;;;;5034805;28;20708;-89
2023/06/23 11:41:14;;;;;;;10.77;8.40;;;17.00;99.90;;;;;;5030666;28;20225;-89
2023/06/23 11:43:43;;;;;;;10.88;8.45;;;16.90;99.90;;;;;;5022474;28;20182;-88
2023/06/23 11:46:16;;;;;;;10.73;8.50;;;16.90;99.90;;;;;;5031357;28;20183;-88
2023/06/23 11:48:42;;;;;;;9.43;8.05;;;17.00;99.90;;;;;;5034358;28;20210;-88
2023/06/23 11:51:16;;;;;;;10.38;7.05;;;17.00;99.90;;;;;;5034480;28;20235;-87
2023/06/23 11:53:43;;;;;;;7.68;6.80;;;17.10;99.90;;;;;;5034193;28;20190;-88
2023/06/23 11:56:13;;;;;;;12.95;7.97;;;17.10;99.90;;;;;;5035889;28;20659;-89
2023/06/23 11:58:39;;;;;;;8.95;7.45;;;17.10;99.90;;;;;;5039389;28;20175;-88
2023/06/23 12:01:05;;;;;;;8.68;7.50;;;17.20;99.90;;;;;;5040855;28;20182;-89
2023/06/23 12:03:35;;;;;;;8.52;7.72;;;17.20;99.90;;;;;;5041734;28;20178;-90
2023/06/23 12:06:00;;;;;;;9.18;7.50;;;17.20;99.90;;;;;;5043417;28;20193;-88
2023/06/23 12:08:27;;;;;;;9.48;7.72;;;17.30;99.90;;;;;;5045741;28;20202;-90
2023/06/23 12:10:53;;;;;;;10.68;8.20;;;17.30;99.90;;;;;;5047044;28;20214;-89
2023/06/23 12:13:20;;;;;;;9.18;7.93;;;17.40;99.90;;;;;;5041431;28;20175;-89
2023/06/23 12:15:46;;;;;;;12.05;8.70;;;17.40;99.90;;;;;;5048606;28;20181;-88
2023/06/23 12:18:12;;;;;;;11.88;9.23;;;17.50;99.90;;;;;;5047239;28;20190;-93
2023/06/23 12:20:40;;;;;;;11.27;10.05;;;17.50;99.90;;;;;;5048430;28;20174;-90
2023/06/23 12:23:10;;;;;;;13.07;9.60;;;17.50;99.90;;;;;;5046100;28;20190;-89
2023/06/23 12:25:49;;;;;;;12.55;9.95;;;17.50;99.90;;;;;;5027496;28;20191;-89
2023/06/23 12:28:20;;;;;;;10.75;9.65;;;17.50;99.90;;;;;;5029038;28;20256;-89
2023/06/23 12:30:50;;;;;;;12.23;9.50;;;17.60;99.90;;;;;;5040266;28;20174;-90
2023/06/23 12:33:16;;;;;;;14.50;10.25;;;17.50;99.90;;;;;;5021475;28;20182;-88
2023/06/23 12:36:00;;;;;;;12.07;9.85;;;17.50;99.90;;;;;;5042474;28;20583;-92
2023/06/23 12:38:26;;;;;;;12.38;9.68;;;17.70;99.90;;;;;;5044360;28;20162;-88
2023/06/23 12:40:52;;;;;;;13.15;10.50;;;17.60;99.90;;;;;;5044653;28;20183;-89
2023/06/23 12:43:19;;;;;;;13.60;10.23;;;17.60;99.90;;;;;;5025988;28;20279;-91
2023/06/23 12:45:49;;;;;;;12.35;10.32;;;17.60;99.90;;;;;;5042345;28;20178;-88
2023/06/23 12:48:15;;;;;;;12.05;9.98;;;17.60;99.90;;;;;;5034475;28;20224;-90
2023/06/23 12:50:42;;;;;;;11.10;9.80;;;17.60;99.90;;;;;;5055029;28;20545;-90
2023/06/23 12:53:08;;;;;;;10.95;9.73;;;17.70;99.90;;;;;;5027745;28;20206;-92
2023/06/23 12:55:34;;;;;;;13.20;11.18;;;17.70;99.90;;;;;;5037108;28;20186;-90
2023/06/23 12:58:03;;;;;;;13.90;11.98;;;17.60;99.90;;;;;;5027232;28;20179;-90
2023/06/23 13:00:28;;;;;;;13.38;11.07;;;17.70;99.90;;;;;;5025133;28;20198;-90
2023/06/23 13:02:54;;;;;;;12.25;10.38;;;17.70;99.90;;;;;;5021320;28;20499;-88